AXM2356 WMKC-WIII
Flight info
| Callsign | AXM2356 |
|---|---|
| Flight time | 2h 0m |
| Altitude | 37000 |
| Route | DUBMU1A LERKA Y514 BEKSO Y512 VPK B469 BIDAK |
| Aircraft | A320/M-SDE3FGHIRWY/LB1 |
Departure
| Time | 2026-04-14 13:17 |
|---|---|
| Airport | Sultan Ismail Petra Airport (WMKC) |
Arrival
| Time | 2026-04-14 15:18 |
|---|---|
| Airport | Soekarno-Hatta International Airport (WIII) |
| Time | Latitude | Longitude | Altitude | Speed | Heading |
|---|---|---|---|---|---|
| 2026-04-14 12:51 | 6.16988 | 102.29035 | 22 ft | 0 kts | 9° |
| 2026-04-14 13:11 | 6.16979 | 102.29033 | 22 ft | 4 kts | 6° |
| 2026-04-14 13:11 | 6.16953 | 102.29035 | 24 ft | 4 kts | 332° |
| 2026-04-14 13:11 | 6.16938 | 102.29050 | 22 ft | 1 kts | 280° |
| 2026-04-14 13:11 | 6.16938 | 102.29051 | 22 ft | 0 kts | 280° |
| 2026-04-14 13:14 | 6.16943 | 102.29021 | 23 ft | 15 kts | 280° |
| 2026-04-14 13:14 | 6.16963 | 102.28910 | 22 ft | 16 kts | 280° |
| 2026-04-14 13:14 | 6.16932 | 102.28820 | 22 ft | 13 kts | 252° |
| 2026-04-14 13:15 | 6.16935 | 102.28740 | 22 ft | 11 kts | 278° |
| 2026-04-14 13:15 | 6.16932 | 102.28670 | 22 ft | 9 kts | 261° |
| 2026-04-14 13:15 | 6.16921 | 102.28609 | 21 ft | 8 kts | 260° |
| 2026-04-14 13:15 | 6.16911 | 102.28557 | 22 ft | 8 kts | 259° |
| 2026-04-14 13:16 | 6.16854 | 102.28503 | 23 ft | 17 kts | 192° |
| 2026-04-14 13:16 | 6.16809 | 102.28565 | 24 ft | 0 kts | 100° |
| 2026-04-14 13:17 | 6.16768 | 102.28811 | 21 ft | 80 kts | 99° |
| 2026-04-14 13:17 | 6.16632 | 102.29624 | 23 ft | 152 kts | 99° |
| 2026-04-14 13:17 | 6.16406 | 102.30805 | 378 ft | 179 kts | 102° |
| 2026-04-14 13:17 | 6.16179 | 102.32015 | 1066 ft | 173 kts | 98° |
| 2026-04-14 13:18 | 6.15689 | 102.33134 | 1440 ft | 188 kts | 135° |
| 2026-04-14 13:18 | 6.14441 | 102.33751 | 1659 ft | 216 kts | 160° |
| 2026-04-14 13:18 | 6.12915 | 102.34205 | 1989 ft | 241 kts | 163° |
| 2026-04-14 13:18 | 6.11229 | 102.34678 | 2449 ft | 261 kts | 163° |
| 2026-04-14 13:19 | 6.09452 | 102.35181 | 3169 ft | 269 kts | 163° |
| 2026-04-14 13:19 | 6.07633 | 102.35709 | 3951 ft | 275 kts | 163° |
| 2026-04-14 13:19 | 6.05783 | 102.36260 | 4749 ft | 279 kts | 163° |
| 2026-04-14 13:19 | 6.03907 | 102.36828 | 5528 ft | 283 kts | 163° |
| 2026-04-14 13:20 | 6.02015 | 102.37407 | 6316 ft | 286 kts | 163° |
| 2026-04-14 13:20 | 6.00087 | 102.37967 | 7044 ft | 290 kts | 169° |
| 2026-04-14 13:20 | 5.98078 | 102.38125 | 7781 ft | 291 kts | 184° |
| 2026-04-14 13:20 | 5.96055 | 102.37962 | 8549 ft | 293 kts | 185° |
| 2026-04-14 13:21 | 5.94011 | 102.37797 | 9316 ft | 296 kts | 185° |
| 2026-04-14 13:21 | 5.91952 | 102.37635 | 10039 ft | 298 kts | 184° |
| 2026-04-14 13:21 | 5.89847 | 102.37472 | 10438 ft | 313 kts | 184° |
| 2026-04-14 13:21 | 5.87596 | 102.37298 | 10604 ft | 335 kts | 184° |
| 2026-04-14 13:22 | 5.85241 | 102.37115 | 11069 ft | 343 kts | 184° |
| 2026-04-14 13:22 | 5.82846 | 102.36930 | 11686 ft | 347 kts | 184° |
| 2026-04-14 13:22 | 5.80431 | 102.36743 | 12323 ft | 350 kts | 184° |
| 2026-04-14 13:22 | 5.77997 | 102.36556 | 12963 ft | 352 kts | 184° |
| 2026-04-14 13:23 | 5.75569 | 102.36371 | 13580 ft | 356 kts | 184° |
| 2026-04-14 13:23 | 5.73060 | 102.36179 | 14140 ft | 359 kts | 184° |
| 2026-04-14 13:23 | 5.70593 | 102.35989 | 14671 ft | 362 kts | 184° |
| 2026-04-14 13:23 | 5.68039 | 102.35791 | 15199 ft | 365 kts | 184° |
| 2026-04-14 13:24 | 5.65504 | 102.35592 | 15737 ft | 368 kts | 184° |
| 2026-04-14 13:24 | 5.61237 | 102.35260 | 16618 ft | 372 kts | 184° |
| 2026-04-14 13:24 | 5.59530 | 102.35128 | 16898 ft | 372 kts | 183° |
| 2026-04-14 13:25 | 5.58943 | 102.35095 | 17041 ft | 370 kts | 182° |
| 2026-04-14 13:25 | 5.55718 | 102.34696 | 17448 ft | 376 kts | 186° |
| 2026-04-14 13:26 | 5.47864 | 102.35095 | 18833 ft | 384 kts | 161° |
| 2026-04-14 13:26 | 5.45368 | 102.36079 | 19281 ft | 387 kts | 158° |
| 2026-04-14 13:26 | 5.42863 | 102.37094 | 19731 ft | 389 kts | 158° |
| 2026-04-14 13:26 | 5.40340 | 102.38098 | 20174 ft | 392 kts | 158° |
| 2026-04-14 13:27 | 5.37796 | 102.39104 | 20636 ft | 394 kts | 159° |
| 2026-04-14 13:27 | 5.36100 | 102.39773 | 20932 ft | 396 kts | 159° |
| 2026-04-14 13:27 | 5.32656 | 102.41130 | 21519 ft | 400 kts | 159° |
| 2026-04-14 13:27 | 5.30940 | 102.41811 | 21814 ft | 401 kts | 158° |
| 2026-04-14 13:28 | 5.28570 | 102.42755 | 22202 ft | 404 kts | 159° |
| 2026-04-14 13:28 | 5.25912 | 102.43814 | 22654 ft | 407 kts | 159° |
| 2026-04-14 13:28 | 5.23273 | 102.44866 | 23086 ft | 409 kts | 159° |
| 2026-04-14 13:28 | 5.20621 | 102.45924 | 23488 ft | 412 kts | 159° |
| 2026-04-14 13:29 | 5.17952 | 102.46990 | 23824 ft | 414 kts | 159° |
| 2026-04-14 13:29 | 5.15265 | 102.48065 | 24164 ft | 417 kts | 158° |
| 2026-04-14 13:29 | 5.12566 | 102.49146 | 24498 ft | 419 kts | 158° |
| 2026-04-14 13:29 | 5.09852 | 102.50231 | 24825 ft | 421 kts | 158° |
| 2026-04-14 13:30 | 5.07124 | 102.51322 | 25150 ft | 423 kts | 158° |
| 2026-04-14 13:30 | 5.04383 | 102.52418 | 25482 ft | 425 kts | 158° |
| 2026-04-14 13:30 | 5.01625 | 102.53518 | 25806 ft | 427 kts | 158° |
| 2026-04-14 13:30 | 4.98861 | 102.54620 | 26115 ft | 429 kts | 158° |
| 2026-04-14 13:31 | 4.96080 | 102.55730 | 26425 ft | 431 kts | 158° |
| 2026-04-14 13:31 | 4.93290 | 102.56841 | 26725 ft | 433 kts | 158° |
| 2026-04-14 13:31 | 4.90485 | 102.57957 | 27016 ft | 435 kts | 158° |
| 2026-04-14 13:31 | 4.87665 | 102.59082 | 27306 ft | 437 kts | 158° |
| 2026-04-14 13:32 | 4.84833 | 102.60214 | 27595 ft | 439 kts | 158° |
| 2026-04-14 13:32 | 4.81991 | 102.61350 | 27876 ft | 441 kts | 158° |
| 2026-04-14 13:32 | 4.79134 | 102.62489 | 28152 ft | 443 kts | 158° |
| 2026-04-14 13:32 | 4.76266 | 102.63630 | 28429 ft | 445 kts | 158° |
| 2026-04-14 13:33 | 4.73389 | 102.64775 | 28704 ft | 447 kts | 158° |
| 2026-04-14 13:33 | 4.70943 | 102.65746 | 28927 ft | 448 kts | 158° |
| 2026-04-14 13:33 | 4.68075 | 102.66876 | 29170 ft | 450 kts | 158° |
| 2026-04-14 13:33 | 4.65126 | 102.68051 | 29433 ft | 452 kts | 158° |
| 2026-04-14 13:34 | 4.59266 | 102.70399 | 29935 ft | 455 kts | 158° |
| 2026-04-14 13:34 | 4.56322 | 102.71577 | 30145 ft | 456 kts | 158° |
| 2026-04-14 13:34 | 4.53369 | 102.72755 | 30348 ft | 458 kts | 158° |
| 2026-04-14 13:35 | 4.50406 | 102.73936 | 30543 ft | 459 kts | 158° |
| 2026-04-14 13:35 | 4.47472 | 102.75104 | 30733 ft | 460 kts | 158° |
| 2026-04-14 13:35 | 4.44493 | 102.76290 | 30930 ft | 461 kts | 158° |
| 2026-04-14 13:35 | 4.41505 | 102.77480 | 31118 ft | 462 kts | 158° |
| 2026-04-14 13:36 | 4.38520 | 102.78669 | 31394 ft | 461 kts | 158° |
| 2026-04-14 13:36 | 4.35545 | 102.79852 | 31669 ft | 460 kts | 158° |
| 2026-04-14 13:36 | 4.32568 | 102.81035 | 31933 ft | 459 kts | 158° |
| 2026-04-14 13:36 | 4.29598 | 102.82217 | 32201 ft | 459 kts | 158° |
| 2026-04-14 13:37 | 4.26636 | 102.83400 | 32477 ft | 458 kts | 158° |
| 2026-04-14 13:37 | 4.23677 | 102.84581 | 32748 ft | 458 kts | 158° |
| 2026-04-14 13:37 | 4.20717 | 102.85759 | 32994 ft | 457 kts | 158° |
| 2026-04-14 13:37 | 4.17760 | 102.86933 | 33263 ft | 457 kts | 159° |
| 2026-04-14 13:38 | 4.14808 | 102.88105 | 33524 ft | 457 kts | 159° |
| 2026-04-14 13:38 | 4.11855 | 102.89280 | 33799 ft | 456 kts | 159° |
| 2026-04-14 13:38 | 4.08913 | 102.90451 | 34035 ft | 456 kts | 159° |
| 2026-04-14 13:38 | 4.05964 | 102.91625 | 34252 ft | 455 kts | 159° |
| 2026-04-14 13:39 | 4.03029 | 102.92790 | 34481 ft | 454 kts | 159° |
| 2026-04-14 13:39 | 4.00089 | 102.93956 | 34707 ft | 454 kts | 159° |
| 2026-04-14 13:39 | 3.97159 | 102.95119 | 34924 ft | 453 kts | 159° |
| 2026-04-14 13:39 | 3.94231 | 102.96283 | 35141 ft | 452 kts | 159° |
| 2026-04-14 13:40 | 3.91309 | 102.97445 | 35357 ft | 451 kts | 159° |
| 2026-04-14 13:40 | 3.88395 | 102.98604 | 35561 ft | 451 kts | 159° |
| 2026-04-14 13:40 | 3.85484 | 102.99763 | 35764 ft | 450 kts | 159° |
| 2026-04-14 13:40 | 3.82577 | 103.00921 | 35961 ft | 449 kts | 159° |
| 2026-04-14 13:41 | 3.79726 | 103.02197 | 36155 ft | 448 kts | 151° |
| 2026-04-14 13:41 | 3.77126 | 103.03908 | 36336 ft | 448 kts | 141° |
| 2026-04-14 13:41 | 3.74831 | 103.06016 | 36508 ft | 448 kts | 135° |
| 2026-04-14 13:41 | 3.72634 | 103.08230 | 36683 ft | 448 kts | 135° |
| 2026-04-14 13:42 | 3.70434 | 103.10434 | 36846 ft | 447 kts | 135° |
| 2026-04-14 13:42 | 3.66042 | 103.14823 | 36896 ft | 445 kts | 136° |
| 2026-04-14 13:43 | 3.61692 | 103.19176 | 36896 ft | 445 kts | 136° |
| 2026-04-14 13:43 | 3.57321 | 103.23556 | 36900 ft | 444 kts | 136° |
| 2026-04-14 13:44 | 3.53528 | 103.27362 | 36899 ft | 444 kts | 136° |
| 2026-04-14 13:44 | 3.51865 | 103.29027 | 36885 ft | 441 kts | 136° |
| 2026-04-14 13:45 | 3.47594 | 103.33300 | 36906 ft | 428 kts | 136° |
| 2026-04-14 13:45 | 3.43423 | 103.37463 | 36905 ft | 418 kts | 136° |
| 2026-04-14 13:46 | 3.39231 | 103.41407 | 36911 ft | 413 kts | 144° |
| 2026-04-14 13:46 | 3.34165 | 103.44188 | 36909 ft | 421 kts | 156° |
| 2026-04-14 13:47 | 3.28762 | 103.46603 | 36909 ft | 430 kts | 156° |
| 2026-04-14 13:47 | 3.23253 | 103.49085 | 36911 ft | 438 kts | 156° |
| 2026-04-14 13:48 | 3.17680 | 103.51596 | 36910 ft | 440 kts | 156° |
| 2026-04-14 13:48 | 3.12083 | 103.54110 | 36908 ft | 441 kts | 156° |
| 2026-04-14 13:49 | 3.06477 | 103.56608 | 36909 ft | 441 kts | 156° |
| 2026-04-14 13:49 | 3.00868 | 103.59097 | 36911 ft | 441 kts | 156° |
| 2026-04-14 13:50 | 2.95260 | 103.61588 | 36912 ft | 441 kts | 156° |
| 2026-04-14 13:50 | 2.89646 | 103.64084 | 36913 ft | 441 kts | 156° |
| 2026-04-14 13:51 | 2.84042 | 103.66590 | 36914 ft | 441 kts | 156° |
| 2026-04-14 13:51 | 2.78440 | 103.69105 | 36919 ft | 441 kts | 156° |
| 2026-04-14 13:52 | 2.72834 | 103.71618 | 36918 ft | 442 kts | 156° |
| 2026-04-14 13:52 | 2.67231 | 103.74155 | 36922 ft | 442 kts | 156° |
| 2026-04-14 13:53 | 2.61646 | 103.76725 | 36922 ft | 442 kts | 155° |
| 2026-04-14 13:53 | 2.56057 | 103.79297 | 36919 ft | 442 kts | 156° |
| 2026-04-14 13:54 | 2.50463 | 103.81856 | 36922 ft | 443 kts | 156° |
| 2026-04-14 13:54 | 2.44858 | 103.84414 | 36923 ft | 443 kts | 156° |
| 2026-04-14 13:55 | 2.39184 | 103.86799 | 36917 ft | 442 kts | 165° |
| 2026-04-14 13:55 | 2.33115 | 103.87725 | 36914 ft | 442 kts | 174° |
| 2026-04-14 13:56 | 2.26986 | 103.88307 | 36913 ft | 443 kts | 174° |
| 2026-04-14 13:56 | 2.20852 | 103.88892 | 36910 ft | 443 kts | 174° |
| 2026-04-14 13:57 | 2.14713 | 103.89485 | 36912 ft | 443 kts | 174° |
| 2026-04-14 13:57 | 2.08564 | 103.90077 | 36912 ft | 444 kts | 174° |
| 2026-04-14 13:58 | 2.02417 | 103.90666 | 36915 ft | 444 kts | 174° |
| 2026-04-14 13:58 | 1.96260 | 103.91264 | 36911 ft | 445 kts | 174° |
| 2026-04-14 13:59 | 1.90088 | 103.91607 | 36908 ft | 445 kts | 181° |
| 2026-04-14 13:59 | 1.83891 | 103.91429 | 36910 ft | 446 kts | 181° |
| 2026-04-14 14:00 | 1.77692 | 103.91258 | 36910 ft | 446 kts | 181° |
| 2026-04-14 14:00 | 1.71494 | 103.91471 | 36908 ft | 446 kts | 175° |
| 2026-04-14 14:01 | 1.65297 | 103.91874 | 36911 ft | 447 kts | 176° |
| 2026-04-14 14:01 | 1.59085 | 103.92272 | 36908 ft | 447 kts | 176° |
| 2026-04-14 14:02 | 1.52883 | 103.92670 | 36913 ft | 447 kts | 176° |
| 2026-04-14 14:02 | 1.46666 | 103.93070 | 36910 ft | 447 kts | 176° |
| 2026-04-14 14:03 | 1.40530 | 103.92498 | 36937 ft | 448 kts | 195° |
| 2026-04-14 14:03 | 1.34649 | 103.90310 | 36943 ft | 449 kts | 201° |
| 2026-04-14 14:04 | 1.28874 | 103.88039 | 36944 ft | 449 kts | 199° |
| 2026-04-14 14:04 | 1.25864 | 103.87223 | 36938 ft | 448 kts | 188° |
| 2026-04-14 14:04 | 1.22767 | 103.86932 | 36930 ft | 447 kts | 179° |
| 2026-04-14 14:05 | 1.16656 | 103.87870 | 36920 ft | 446 kts | 161° |
| 2026-04-14 14:05 | 1.10875 | 103.90157 | 36915 ft | 452 kts | 158° |
| 2026-04-14 14:06 | 1.05008 | 103.92535 | 36983 ft | 457 kts | 158° |
| 2026-04-14 14:06 | 0.99169 | 103.94897 | 36906 ft | 448 kts | 158° |
| 2026-04-14 14:07 | 0.93395 | 103.97240 | 36905 ft | 448 kts | 158° |
| 2026-04-14 14:07 | 0.87620 | 103.99586 | 36907 ft | 448 kts | 158° |
| 2026-04-14 14:08 | 0.81845 | 104.01931 | 36906 ft | 448 kts | 158° |
| 2026-04-14 14:08 | 0.76057 | 104.04274 | 36915 ft | 449 kts | 158° |
| 2026-04-14 14:09 | 0.70290 | 104.06674 | 36916 ft | 449 kts | 156° |
| 2026-04-14 14:09 | 0.64565 | 104.09164 | 36920 ft | 449 kts | 156° |
| 2026-04-14 14:10 | 0.58836 | 104.11652 | 36921 ft | 449 kts | 156° |
| 2026-04-14 14:10 | 0.53094 | 104.14118 | 36931 ft | 449 kts | 156° |
| 2026-04-14 14:11 | 0.47355 | 104.16574 | 36932 ft | 449 kts | 156° |
| 2026-04-14 14:11 | 0.41620 | 104.19036 | 36937 ft | 449 kts | 156° |
| 2026-04-14 14:12 | 0.35887 | 104.21497 | 36931 ft | 448 kts | 156° |
| 2026-04-14 14:12 | 0.30154 | 104.23955 | 36931 ft | 448 kts | 156° |
| 2026-04-14 14:13 | 0.24460 | 104.26395 | 36930 ft | 448 kts | 156° |
| 2026-04-14 14:13 | 0.18731 | 104.28854 | 36929 ft | 448 kts | 156° |
| 2026-04-14 14:14 | 0.12997 | 104.31314 | 36927 ft | 448 kts | 156° |
| 2026-04-14 14:14 | 0.08193 | 104.33369 | 36926 ft | 448 kts | 156° |
| 2026-04-14 14:15 | 0.02465 | 104.35831 | 36923 ft | 448 kts | 156° |
| 2026-04-14 14:15 | -0.03271 | 104.38297 | 36926 ft | 449 kts | 156° |
| 2026-04-14 14:16 | -0.09008 | 104.40749 | 36925 ft | 449 kts | 156° |
| 2026-04-14 14:16 | -0.14745 | 104.43208 | 36927 ft | 449 kts | 156° |
| 2026-04-14 14:17 | -0.23312 | 104.46885 | 36927 ft | 449 kts | 156° |
| 2026-04-14 14:17 | -0.29048 | 104.49344 | 36929 ft | 448 kts | 156° |
| 2026-04-14 14:18 | -0.34816 | 104.51822 | 36930 ft | 448 kts | 156° |
| 2026-04-14 14:18 | -0.40511 | 104.54271 | 36933 ft | 448 kts | 156° |
| 2026-04-14 14:19 | -0.46281 | 104.56735 | 36927 ft | 448 kts | 156° |
| 2026-04-14 14:19 | -0.51995 | 104.59136 | 36929 ft | 448 kts | 157° |
| 2026-04-14 14:20 | -0.57793 | 104.61428 | 36925 ft | 448 kts | 158° |
| 2026-04-14 14:20 | -0.63602 | 104.63697 | 36921 ft | 448 kts | 158° |
| 2026-04-14 14:21 | -0.69401 | 104.65997 | 36924 ft | 448 kts | 158° |
| 2026-04-14 14:21 | -0.75194 | 104.68311 | 36921 ft | 448 kts | 158° |
| 2026-04-14 14:22 | -0.80982 | 104.70619 | 36929 ft | 448 kts | 158° |
| 2026-04-14 14:22 | -0.86772 | 104.72928 | 36925 ft | 448 kts | 158° |
| 2026-04-14 14:23 | -0.92559 | 104.75229 | 36928 ft | 448 kts | 158° |
| 2026-04-14 14:23 | -0.98350 | 104.77529 | 36931 ft | 447 kts | 158° |
| 2026-04-14 14:24 | -1.04129 | 104.79834 | 36931 ft | 447 kts | 158° |
| 2026-04-14 14:24 | -1.09903 | 104.82137 | 36934 ft | 447 kts | 158° |
| 2026-04-14 14:25 | -1.15674 | 104.84427 | 36935 ft | 446 kts | 158° |
| 2026-04-14 14:25 | -1.21439 | 104.86728 | 36933 ft | 446 kts | 158° |
| 2026-04-14 14:26 | -1.27198 | 104.89027 | 36934 ft | 445 kts | 158° |
| 2026-04-14 14:26 | -1.32952 | 104.91319 | 36935 ft | 445 kts | 158° |
| 2026-04-14 14:27 | -1.38697 | 104.93608 | 36936 ft | 444 kts | 158° |
| 2026-04-14 14:27 | -1.44438 | 104.95890 | 36936 ft | 444 kts | 158° |
| 2026-04-14 14:28 | -1.50187 | 104.98169 | 36935 ft | 444 kts | 158° |
| 2026-04-14 14:28 | -1.55926 | 105.00454 | 36931 ft | 444 kts | 158° |
| 2026-04-14 14:29 | -1.61666 | 105.02745 | 36931 ft | 444 kts | 158° |
| 2026-04-14 14:29 | -1.67405 | 105.05036 | 36929 ft | 444 kts | 158° |
| 2026-04-14 14:30 | -1.73147 | 105.07325 | 36927 ft | 444 kts | 158° |
| 2026-04-14 14:30 | -1.78890 | 105.09618 | 36924 ft | 445 kts | 158° |
| 2026-04-14 14:31 | -1.84639 | 105.11902 | 36922 ft | 445 kts | 158° |
| 2026-04-14 14:31 | -1.90391 | 105.14191 | 36920 ft | 445 kts | 158° |
| 2026-04-14 14:32 | -1.96148 | 105.16489 | 36919 ft | 446 kts | 158° |
| 2026-04-14 14:32 | -2.01903 | 105.18784 | 36918 ft | 446 kts | 158° |
| 2026-04-14 14:33 | -2.07668 | 105.21082 | 36918 ft | 446 kts | 158° |
| 2026-04-14 14:33 | -2.13439 | 105.23379 | 36919 ft | 446 kts | 158° |
| 2026-04-14 14:34 | -2.22097 | 105.26833 | 36914 ft | 447 kts | 158° |
| 2026-04-14 14:35 | -2.27835 | 105.29123 | 36914 ft | 447 kts | 158° |
| 2026-04-14 14:35 | -2.33618 | 105.31426 | 36912 ft | 447 kts | 158° |
| 2026-04-14 14:36 | -2.39438 | 105.33741 | 36912 ft | 448 kts | 158° |
| 2026-04-14 14:36 | -2.45188 | 105.36034 | 36913 ft | 448 kts | 158° |
| 2026-04-14 14:37 | -2.50973 | 105.38348 | 36912 ft | 448 kts | 158° |
| 2026-04-14 14:37 | -2.56742 | 105.40702 | 36910 ft | 448 kts | 157° |
| 2026-04-14 14:38 | -2.62473 | 105.43144 | 36916 ft | 448 kts | 156° |
| 2026-04-14 14:38 | -2.68198 | 105.45596 | 36914 ft | 447 kts | 157° |
| 2026-04-14 14:39 | -2.73924 | 105.48028 | 36916 ft | 447 kts | 157° |
| 2026-04-14 14:39 | -2.79650 | 105.50451 | 36916 ft | 447 kts | 157° |
| 2026-04-14 14:40 | -2.85378 | 105.52866 | 36911 ft | 447 kts | 157° |
| 2026-04-14 14:40 | -2.91106 | 105.55292 | 36907 ft | 447 kts | 157° |
| 2026-04-14 14:41 | -2.96821 | 105.57723 | 36906 ft | 447 kts | 157° |
| 2026-04-14 14:41 | -3.02546 | 105.60147 | 36910 ft | 447 kts | 157° |
| 2026-04-14 14:42 | -3.08272 | 105.62562 | 36910 ft | 447 kts | 157° |
| 2026-04-14 14:42 | -3.13992 | 105.64979 | 36907 ft | 446 kts | 157° |
| 2026-04-14 14:43 | -3.19714 | 105.67407 | 36912 ft | 446 kts | 157° |
| 2026-04-14 14:43 | -3.25431 | 105.69833 | 36915 ft | 446 kts | 157° |
| 2026-04-14 14:44 | -3.31145 | 105.72255 | 36918 ft | 446 kts | 157° |
| 2026-04-14 14:44 | -3.36856 | 105.74671 | 36916 ft | 446 kts | 157° |
| 2026-04-14 14:45 | -3.42568 | 105.77092 | 36914 ft | 446 kts | 156° |
| 2026-04-14 14:45 | -3.48277 | 105.79510 | 36917 ft | 446 kts | 156° |
| 2026-04-14 14:46 | -3.53991 | 105.81927 | 36916 ft | 445 kts | 156° |
| 2026-04-14 14:46 | -3.59696 | 105.84345 | 36922 ft | 445 kts | 156° |
| 2026-04-14 14:47 | -3.65396 | 105.86767 | 36922 ft | 445 kts | 156° |
| 2026-04-14 14:47 | -3.71098 | 105.89186 | 36923 ft | 445 kts | 156° |
| 2026-04-14 14:48 | -3.76756 | 105.91583 | 36926 ft | 445 kts | 156° |
| 2026-04-14 14:48 | -3.82458 | 105.94002 | 36927 ft | 445 kts | 156° |
| 2026-04-14 14:49 | -3.88146 | 105.96416 | 36925 ft | 444 kts | 156° |
| 2026-04-14 14:49 | -3.93842 | 105.98831 | 36929 ft | 444 kts | 156° |
| 2026-04-14 14:50 | -3.99534 | 106.01245 | 36927 ft | 444 kts | 156° |
| 2026-04-14 14:50 | -4.05323 | 106.03396 | 36924 ft | 445 kts | 166° |
| 2026-04-14 14:51 | -4.11413 | 106.04551 | 36800 ft | 446 kts | 168° |
| 2026-04-14 14:51 | -4.14463 | 106.05119 | 36551 ft | 446 kts | 168° |
| 2026-04-14 14:51 | -4.17518 | 106.05687 | 36309 ft | 446 kts | 168° |
| 2026-04-14 14:51 | -4.20571 | 106.06256 | 36065 ft | 447 kts | 168° |
| 2026-04-14 14:52 | -4.23629 | 106.06828 | 35829 ft | 447 kts | 168° |
| 2026-04-14 14:52 | -4.26685 | 106.07397 | 35593 ft | 447 kts | 168° |
| 2026-04-14 14:52 | -4.29748 | 106.07969 | 35353 ft | 448 kts | 168° |
| 2026-04-14 14:52 | -4.32812 | 106.08543 | 35124 ft | 448 kts | 168° |
| 2026-04-14 14:53 | -4.35868 | 106.09114 | 34895 ft | 446 kts | 168° |
| 2026-04-14 14:53 | -4.38920 | 106.09682 | 34664 ft | 445 kts | 168° |
| 2026-04-14 14:53 | -4.41958 | 106.10247 | 34440 ft | 443 kts | 168° |
| 2026-04-14 14:53 | -4.44980 | 106.10809 | 34213 ft | 441 kts | 168° |
| 2026-04-14 14:54 | -4.47999 | 106.11374 | 33989 ft | 440 kts | 168° |
| 2026-04-14 14:54 | -4.50989 | 106.11936 | 33564 ft | 436 kts | 168° |
| 2026-04-14 14:54 | -4.53960 | 106.12491 | 33029 ft | 433 kts | 168° |
| 2026-04-14 14:54 | -4.56910 | 106.13041 | 32493 ft | 430 kts | 168° |
| 2026-04-14 14:55 | -4.59843 | 106.13590 | 31959 ft | 427 kts | 168° |
| 2026-04-14 14:55 | -4.62760 | 106.14139 | 31436 ft | 425 kts | 168° |
| 2026-04-14 14:55 | -4.65661 | 106.14678 | 30913 ft | 423 kts | 168° |
| 2026-04-14 14:55 | -4.68548 | 106.15214 | 30402 ft | 421 kts | 168° |
| 2026-04-14 14:56 | -4.74286 | 106.16280 | 29344 ft | 416 kts | 168° |
| 2026-04-14 14:56 | -4.77124 | 106.16809 | 28853 ft | 413 kts | 168° |
| 2026-04-14 14:56 | -4.79934 | 106.17334 | 28383 ft | 409 kts | 168° |
| 2026-04-14 14:57 | -4.82715 | 106.17852 | 27911 ft | 405 kts | 168° |
| 2026-04-14 14:57 | -4.85474 | 106.18365 | 27452 ft | 402 kts | 168° |
| 2026-04-14 14:57 | -4.88215 | 106.18880 | 26999 ft | 399 kts | 168° |
| 2026-04-14 14:57 | -4.90932 | 106.19392 | 26553 ft | 396 kts | 168° |
| 2026-04-14 14:58 | -4.93634 | 106.19902 | 26111 ft | 394 kts | 168° |
| 2026-04-14 14:58 | -4.96320 | 106.20410 | 25659 ft | 392 kts | 168° |
| 2026-04-14 14:58 | -4.98995 | 106.20913 | 25192 ft | 390 kts | 168° |
| 2026-04-14 14:58 | -5.00759 | 106.21243 | 24888 ft | 389 kts | 168° |
| 2026-04-14 14:59 | -5.03419 | 106.21739 | 24406 ft | 389 kts | 168° |
| 2026-04-14 14:59 | -5.06074 | 106.22234 | 23926 ft | 388 kts | 168° |
| 2026-04-14 14:59 | -5.08729 | 106.22728 | 23417 ft | 388 kts | 168° |
| 2026-04-14 14:59 | -5.11381 | 106.23220 | 22871 ft | 387 kts | 168° |
| 2026-04-14 15:00 | -5.14020 | 106.23710 | 22378 ft | 385 kts | 168° |
| 2026-04-14 15:00 | -5.16646 | 106.24200 | 21887 ft | 383 kts | 168° |
| 2026-04-14 15:00 | -5.19256 | 106.24688 | 21407 ft | 381 kts | 168° |
| 2026-04-14 15:00 | -5.21854 | 106.25176 | 20925 ft | 379 kts | 168° |
| 2026-04-14 15:01 | -5.24444 | 106.25661 | 20446 ft | 378 kts | 168° |
| 2026-04-14 15:01 | -5.27025 | 106.26144 | 19972 ft | 376 kts | 168° |
| 2026-04-14 15:01 | -5.29591 | 106.26627 | 19503 ft | 375 kts | 168° |
| 2026-04-14 15:01 | -5.32152 | 106.27107 | 19040 ft | 374 kts | 168° |
| 2026-04-14 15:02 | -5.34707 | 106.27586 | 18569 ft | 373 kts | 168° |
| 2026-04-14 15:02 | -5.37250 | 106.28063 | 18189 ft | 370 kts | 168° |
| 2026-04-14 15:02 | -5.39780 | 106.28539 | 17693 ft | 368 kts | 168° |
| 2026-04-14 15:02 | -5.42288 | 106.29010 | 17199 ft | 366 kts | 168° |
| 2026-04-14 15:03 | -5.44775 | 106.29473 | 16787 ft | 363 kts | 168° |
| 2026-04-14 15:03 | -5.47248 | 106.29934 | 16412 ft | 358 kts | 168° |
| 2026-04-14 15:03 | -5.49698 | 106.30391 | 15965 ft | 357 kts | 168° |
| 2026-04-14 15:03 | -5.52133 | 106.30846 | 15466 ft | 354 kts | 168° |
| 2026-04-14 15:04 | -5.54517 | 106.31293 | 14981 ft | 342 kts | 168° |
| 2026-04-14 15:04 | -5.56809 | 106.31722 | 14582 ft | 329 kts | 168° |
| 2026-04-14 15:04 | -5.59022 | 106.32136 | 14189 ft | 317 kts | 169° |
| 2026-04-14 15:04 | -5.61153 | 106.32535 | 13817 ft | 307 kts | 169° |
| 2026-04-14 15:05 | -5.63217 | 106.32921 | 13412 ft | 297 kts | 169° |
| 2026-04-14 15:05 | -5.65224 | 106.33297 | 13059 ft | 293 kts | 169° |
| 2026-04-14 15:05 | -5.67232 | 106.33675 | 12689 ft | 294 kts | 169° |
| 2026-04-14 15:05 | -5.69243 | 106.34053 | 12320 ft | 294 kts | 169° |
| 2026-04-14 15:06 | -5.71255 | 106.34430 | 11953 ft | 294 kts | 169° |
| 2026-04-14 15:06 | -5.73263 | 106.34805 | 11575 ft | 294 kts | 169° |
| 2026-04-14 15:06 | -5.75276 | 106.35184 | 11212 ft | 294 kts | 169° |
| 2026-04-14 15:06 | -5.77272 | 106.35559 | 10898 ft | 291 kts | 169° |
| 2026-04-14 15:07 | -5.79265 | 106.35933 | 10518 ft | 291 kts | 169° |
| 2026-04-14 15:07 | -5.81260 | 106.36305 | 10143 ft | 292 kts | 169° |
| 2026-04-14 15:07 | -5.83253 | 106.36677 | 9745 ft | 292 kts | 169° |
| 2026-04-14 15:07 | -5.85255 | 106.37049 | 9316 ft | 292 kts | 169° |
| 2026-04-14 15:08 | -5.87246 | 106.37421 | 8922 ft | 291 kts | 169° |
| 2026-04-14 15:08 | -5.89230 | 106.37796 | 8506 ft | 290 kts | 169° |
| 2026-04-14 15:08 | -5.91209 | 106.38172 | 8135 ft | 288 kts | 169° |
| 2026-04-14 15:08 | -5.93171 | 106.38544 | 7722 ft | 287 kts | 169° |
| 2026-04-14 15:09 | -5.95122 | 106.38911 | 7271 ft | 283 kts | 169° |
| 2026-04-14 15:09 | -5.97020 | 106.39267 | 6842 ft | 272 kts | 169° |
| 2026-04-14 15:09 | -5.98868 | 106.39614 | 6429 ft | 270 kts | 169° |
| 2026-04-14 15:09 | -6.00696 | 106.39957 | 6003 ft | 271 kts | 169° |
| 2026-04-14 15:10 | -6.02548 | 106.40301 | 5567 ft | 270 kts | 169° |
| 2026-04-14 15:10 | -6.04356 | 106.40638 | 5143 ft | 258 kts | 169° |
| 2026-04-14 15:10 | -6.06024 | 106.40950 | 4762 ft | 249 kts | 169° |
| 2026-04-14 15:10 | -6.07692 | 106.41262 | 4359 ft | 239 kts | 169° |
| 2026-04-14 15:11 | -6.09321 | 106.41569 | 3977 ft | 238 kts | 169° |
| 2026-04-14 15:11 | -6.10957 | 106.41877 | 3585 ft | 241 kts | 169° |
| 2026-04-14 15:11 | -6.12632 | 106.42193 | 3174 ft | 243 kts | 169° |
| 2026-04-14 15:11 | -6.14277 | 106.42501 | 2792 ft | 244 kts | 169° |
| 2026-04-14 15:12 | -6.15902 | 106.42912 | 2455 ft | 241 kts | 154° |
| 2026-04-14 15:12 | -6.17188 | 106.43953 | 2123 ft | 238 kts | 125° |
| 2026-04-14 15:12 | -6.17793 | 106.45446 | 2019 ft | 225 kts | 98° |
| 2026-04-14 15:12 | -6.17943 | 106.46944 | 2020 ft | 207 kts | 96° |
| 2026-04-14 15:13 | -6.18054 | 106.48331 | 2058 ft | 189 kts | 88° |
| 2026-04-14 15:13 | -6.17802 | 106.49568 | 2029 ft | 175 kts | 69° |
| 2026-04-14 15:13 | -6.17363 | 106.50630 | 2031 ft | 156 kts | 70° |
| 2026-04-14 15:13 | -6.16979 | 106.51615 | 2021 ft | 148 kts | 69° |
| 2026-04-14 15:14 | -6.16605 | 106.52565 | 2026 ft | 145 kts | 69° |
| 2026-04-14 15:14 | -6.16233 | 106.53505 | 2016 ft | 145 kts | 69° |
| 2026-04-14 15:14 | -6.15861 | 106.54442 | 1917 ft | 144 kts | 69° |
| 2026-04-14 15:14 | -6.15490 | 106.55375 | 1759 ft | 144 kts | 69° |
| 2026-04-14 15:15 | -6.15119 | 106.56306 | 1590 ft | 143 kts | 69° |
| 2026-04-14 15:15 | -6.14748 | 106.57237 | 1406 ft | 143 kts | 69° |
| 2026-04-14 15:15 | -6.14378 | 106.58166 | 1228 ft | 143 kts | 70° |
| 2026-04-14 15:15 | -6.14008 | 106.59096 | 1048 ft | 144 kts | 69° |
| 2026-04-14 15:16 | -6.13639 | 106.60022 | 875 ft | 142 kts | 70° |
| 2026-04-14 15:16 | -6.13273 | 106.60941 | 688 ft | 141 kts | 70° |
| 2026-04-14 15:16 | -6.12915 | 106.61854 | 508 ft | 141 kts | 70° |
| 2026-04-14 15:16 | -6.12556 | 106.62758 | 351 ft | 139 kts | 70° |
| 2026-04-14 15:17 | -6.12204 | 106.63640 | 179 ft | 138 kts | 66° |
| 2026-04-14 15:17 | -6.11836 | 106.64547 | 85 ft | 138 kts | 65° |
| 2026-04-14 15:17 | -6.11502 | 106.65385 | 38 ft | 113 kts | 69° |
| 2026-04-14 15:17 | -6.11275 | 106.65956 | 39 ft | 63 kts | 69° |
| 2026-04-14 15:18 | -6.11158 | 106.66258 | 40 ft | 37 kts | 68° |
| 2026-04-14 15:18 | -6.11086 | 106.66445 | 40 ft | 32 kts | 70° |
| 2026-04-14 15:18 | -6.10995 | 106.66691 | 39 ft | 38 kts | 69° |
| 2026-04-14 15:18 | -6.11008 | 106.66789 | 39 ft | 7 kts | 168° |
| 2026-04-14 15:19 | -6.11077 | 106.66808 | 37 ft | 16 kts | 163° |
| 2026-04-14 15:19 | -6.11156 | 106.66744 | 37 ft | 16 kts | 248° |
| 2026-04-14 15:19 | -6.11196 | 106.66641 | 38 ft | 16 kts | 248° |
| 2026-04-14 15:19 | -6.11235 | 106.66544 | 39 ft | 14 kts | 248° |
| 2026-04-14 15:20 | -6.11270 | 106.66457 | 38 ft | 13 kts | 248° |
| 2026-04-14 15:20 | -6.11301 | 106.66378 | 38 ft | 14 kts | 248° |
| 2026-04-14 15:20 | -6.11357 | 106.66235 | 37 ft | 25 kts | 247° |
| 2026-04-14 15:20 | -6.11424 | 106.66066 | 39 ft | 27 kts | 248° |
| 2026-04-14 15:21 | -6.11484 | 106.65919 | 35 ft | 19 kts | 247° |
| 2026-04-14 15:21 | -6.11536 | 106.65793 | 38 ft | 20 kts | 248° |
| 2026-04-14 15:21 | -6.11579 | 106.65687 | 38 ft | 14 kts | 248° |
| 2026-04-14 15:21 | -6.11615 | 106.65602 | 37 ft | 12 kts | 242° |
| 2026-04-14 15:22 | -6.11684 | 106.65589 | 38 ft | 11 kts | 160° |
| 2026-04-14 15:22 | -6.11760 | 106.65622 | 38 ft | 13 kts | 159° |
| 2026-04-14 15:22 | -6.11843 | 106.65643 | 38 ft | 13 kts | 187° |
| 2026-04-14 15:22 | -6.11894 | 106.65583 | 38 ft | 9 kts | 255° |
| 2026-04-14 15:23 | -6.11898 | 106.65568 | 38 ft | 0 kts | 252° |
| 2026-04-14 15:23 | -6.11927 | 106.65554 | 38 ft | 11 kts | 185° |
| 2026-04-14 15:23 | -6.11971 | 106.65550 | 37 ft | 5 kts | 184° |
| 2026-04-14 15:23 | -6.11993 | 106.65548 | 38 ft | 0 kts | 184° |
| 2026-04-14 15:24 | -6.11995 | 106.65548 | 38 ft | 0 kts | 184° |